sensor_id;sensor_type;location;lat;lon;timestamp;P1;durP1;ratioP1;P2;durP2;ratioP2
84923;SDS011;75286;52.218;5.180;2024-03-23T00:53:23;22.55;;;6.75;;
84923;SDS011;75286;52.218;5.180;2024-03-23T00:55:51;20.80;;;7.13;;
84923;SDS011;75286;52.218;5.180;2024-03-23T00:58:17;21.02;;;7.28;;
84923;SDS011;75286;52.218;5.180;2024-03-23T01:00:42;24.48;;;8.32;;
84923;SDS011;75286;52.218;5.180;2024-03-23T01:03:08;22.60;;;7.20;;
84923;SDS011;75286;52.218;5.180;2024-03-23T01:05:33;19.70;;;6.53;;
84923;SDS011;75286;52.218;5.180;2024-03-23T01:07:59;19.58;;;7.53;;
84923;SDS011;75286;52.218;5.180;2024-03-23T01:10:24;21.10;;;7.07;;
84923;SDS011;75286;52.218;5.180;2024-03-23T01:12:50;18.23;;;6.50;;
84923;SDS011;75286;52.218;5.180;2024-03-23T01:15:15;19.05;;;7.35;;
84923;SDS011;75286;52.218;5.180;2024-03-23T01:17:40;23.33;;;7.13;;
84923;SDS011;75286;52.218;5.180;2024-03-23T01:20:06;19.90;;;6.32;;
84923;SDS011;75286;52.218;5.180;2024-03-23T01:22:32;20.05;;;6.57;;
84923;SDS011;75286;52.218;5.180;2024-03-23T01:24:58;24.15;;;7.30;;
84923;SDS011;75286;52.218;5.180;2024-03-23T01:27:23;19.05;;;6.40;;
84923;SDS011;75286;52.218;5.180;2024-03-23T01:29:48;26.10;;;7.32;;
84923;SDS011;75286;52.218;5.180;2024-03-23T01:32:14;19.77;;;7.47;;
84923;SDS011;75286;52.218;5.180;2024-03-23T01:34:39;21.35;;;7.15;;
84923;SDS011;75286;52.218;5.180;2024-03-23T01:37:05;19.55;;;9.10;;
84923;SDS011;75286;52.218;5.180;2024-03-23T01:39:30;22.05;;;7.22;;
84923;SDS011;75286;52.218;5.180;2024-03-23T01:41:58;20.23;;;6.88;;
84923;SDS011;75286;52.218;5.180;2024-03-23T01:44:24;26.70;;;7.50;;
84923;SDS011;75286;52.218;5.180;2024-03-23T01:46:50;16.65;;;6.20;;
84923;SDS011;75286;52.218;5.180;2024-03-23T01:49:16;25.17;;;7.40;;
84923;SDS011;75286;52.218;5.180;2024-03-23T01:51:42;22.60;;;7.75;;
84923;SDS011;75286;52.218;5.180;2024-03-23T01:54:08;22.88;;;7.82;;
84923;SDS011;75286;52.218;5.180;2024-03-23T01:56:37;19.65;;;6.97;;
84923;SDS011;75286;52.218;5.180;2024-03-23T01:59:04;18.75;;;7.43;;
84923;SDS011;75286;52.218;5.180;2024-03-23T02:01:33;18.85;;;7.45;;
84923;SDS011;75286;52.218;5.180;2024-03-23T02:04:01;18.70;;;7.13;;
84923;SDS011;75286;52.218;5.180;2024-03-23T02:06:26;23.08;;;7.13;;
84923;SDS011;75286;52.218;5.180;2024-03-23T02:08:53;15.00;;;6.25;;
84923;SDS011;75286;52.218;5.180;2024-03-23T02:11:22;17.40;;;6.80;;
84923;SDS011;75286;52.218;5.180;2024-03-23T02:13:48;16.02;;;6.18;;
84923;SDS011;75286;52.218;5.180;2024-03-23T02:16:13;23.17;;;6.93;;
84923;SDS011;75286;52.218;5.180;2024-03-23T02:18:39;18.77;;;6.20;;
84923;SDS011;75286;52.218;5.180;2024-03-23T02:21:04;20.42;;;5.95;;
84923;SDS011;75286;52.218;5.180;2024-03-23T02:23:30;16.38;;;5.60;;
84923;SDS011;75286;52.218;5.180;2024-03-23T02:25:55;18.67;;;8.68;;
84923;SDS011;75286;52.218;5.180;2024-03-23T02:28:20;17.27;;;5.50;;
84923;SDS011;75286;52.218;5.180;2024-03-23T02:30:48;18.25;;;5.43;;
84923;SDS011;75286;52.218;5.180;2024-03-23T02:33:14;14.77;;;5.50;;
84923;SDS011;75286;52.218;5.180;2024-03-23T02:35:39;19.27;;;4.82;;
84923;SDS011;75286;52.218;5.180;2024-03-23T02:38:04;17.67;;;5.90;;
84923;SDS011;75286;52.218;5.180;2024-03-23T02:40:30;23.40;;;5.93;;
84923;SDS011;75286;52.218;5.180;2024-03-23T02:42:55;21.70;;;6.25;;
84923;SDS011;75286;52.218;5.180;2024-03-23T02:45:21;13.15;;;4.75;;
84923;SDS011;75286;52.218;5.180;2024-03-23T02:47:46;16.15;;;4.90;;
84923;SDS011;75286;52.218;5.180;2024-03-23T02:50:12;15.25;;;5.05;;
84923;SDS011;75286;52.218;5.180;2024-03-23T02:52:37;17.10;;;4.93;;
84923;SDS011;75286;52.218;5.180;2024-03-23T02:55:03;14.75;;;4.25;;
84923;SDS011;75286;52.218;5.180;2024-03-23T02:57:29;13.27;;;3.80;;
84923;SDS011;75286;52.218;5.180;2024-03-23T02:59:54;10.05;;;4.18;;
84923;SDS011;75286;52.218;5.180;2024-03-23T03:02:20;15.68;;;4.00;;
84923;SDS011;75286;52.218;5.180;2024-03-23T03:04:46;12.48;;;3.80;;
84923;SDS011;75286;52.218;5.180;2024-03-23T03:07:11;17.25;;;5.40;;
84923;SDS011;75286;52.218;5.180;2024-03-23T03:09:37;19.65;;;4.63;;
84923;SDS011;75286;52.218;5.180;2024-03-23T03:12:04;15.95;;;4.03;;
84923;SDS011;75286;52.218;5.180;2024-03-23T03:14:30;14.65;;;3.20;;
84923;SDS011;75286;52.218;5.180;2024-03-23T03:16:56;12.90;;;3.45;;
84923;SDS011;75286;52.218;5.180;2024-03-23T03:19:24;9.82;;;2.33;;
84923;SDS011;75286;52.218;5.180;2024-03-23T03:21:49;15.73;;;3.70;;
84923;SDS011;75286;52.218;5.180;2024-03-23T03:24:15;14.40;;;3.28;;
84923;SDS011;75286;52.218;5.180;2024-03-23T03:26:40;15.85;;;4.40;;
84923;SDS011;75286;52.218;5.180;2024-03-23T03:29:06;13.55;;;3.90;;
84923;SDS011;75286;52.218;5.180;2024-03-23T03:31:31;11.82;;;2.97;;
84923;SDS011;75286;52.218;5.180;2024-03-23T03:33:56;13.68;;;4.88;;
84923;SDS011;75286;52.218;5.180;2024-03-23T03:36:22;22.90;;;3.55;;
84923;SDS011;75286;52.218;5.180;2024-03-23T03:38:47;13.93;;;2.88;;
84923;SDS011;75286;52.218;5.180;2024-03-23T03:41:13;10.45;;;3.42;;
84923;SDS011;75286;52.218;5.180;2024-03-23T03:43:38;16.60;;;2.80;;
84923;SDS011;75286;52.218;5.180;2024-03-23T03:46:04;14.18;;;3.08;;
84923;SDS011;75286;52.218;5.180;2024-03-23T03:48:29;12.93;;;2.75;;
84923;SDS011;75286;52.218;5.180;2024-03-23T03:50:57;12.98;;;3.47;;
84923;SDS011;75286;52.218;5.180;2024-03-23T03:53:22;13.18;;;3.53;;
84923;SDS011;75286;52.218;5.180;2024-03-23T03:55:47;10.93;;;2.25;;
84923;SDS011;75286;52.218;5.180;2024-03-23T03:58:13;11.65;;;2.67;;
84923;SDS011;75286;52.218;5.180;2024-03-23T04:00:39;10.88;;;2.55;;
84923;SDS011;75286;52.218;5.180;2024-03-23T04:03:04;10.90;;;2.65;;
84923;SDS011;75286;52.218;5.180;2024-03-23T04:05:30;12.57;;;2.85;;
84923;SDS011;75286;52.218;5.180;2024-03-23T04:07:56;9.98;;;2.95;;
84923;SDS011;75286;52.218;5.180;2024-03-23T04:10:23;10.25;;;2.42;;
84923;SDS011;75286;52.218;5.180;2024-03-23T04:12:50;8.50;;;3.38;;
84923;SDS011;75286;52.218;5.180;2024-03-23T04:15:15;10.30;;;2.47;;
84923;SDS011;75286;52.218;5.180;2024-03-23T04:17:41;12.38;;;2.88;;
84923;SDS011;75286;52.218;5.180;2024-03-23T04:20:08;11.15;;;2.75;;
84923;SDS011;75286;52.218;5.180;2024-03-23T04:22:36;11.60;;;3.25;;
84923;SDS011;75286;52.218;5.180;2024-03-23T04:25:02;9.65;;;3.05;;
84923;SDS011;75286;52.218;5.180;2024-03-23T04:27:34;12.63;;;3.10;;
84923;SDS011;75286;52.218;5.180;2024-03-23T04:30:00;11.90;;;2.85;;
84923;SDS011;75286;52.218;5.180;2024-03-23T04:32:26;11.80;;;2.67;;
84923;SDS011;75286;52.218;5.180;2024-03-23T04:34:52;11.90;;;2.75;;
84923;SDS011;75286;52.218;5.180;2024-03-23T04:37:18;9.27;;;3.33;;
84923;SDS011;75286;52.218;5.180;2024-03-23T04:39:44;13.75;;;2.20;;
84923;SDS011;75286;52.218;5.180;2024-03-23T04:42:10;10.05;;;2.42;;
84923;SDS011;75286;52.218;5.180;2024-03-23T04:44:35;10.10;;;2.78;;
84923;SDS011;75286;52.218;5.180;2024-03-23T04:47:01;9.63;;;2.60;;
84923;SDS011;75286;52.218;5.180;2024-03-23T04:49:26;9.82;;;2.50;;
84923;SDS011;75286;52.218;5.180;2024-03-23T04:51:52;16.40;;;3.70;;
84923;SDS011;75286;52.218;5.180;2024-03-23T04:54:17;13.77;;;2.53;;
84923;SDS011;75286;52.218;5.180;2024-03-23T04:56:43;9.57;;;2.03;;
84923;SDS011;75286;52.218;5.180;2024-03-23T04:59:08;13.93;;;3.25;;
84923;SDS011;75286;52.218;5.180;2024-03-23T05:01:36;12.20;;;2.97;;
84923;SDS011;75286;52.218;5.180;2024-03-23T05:04:03;9.38;;;2.35;;
84923;SDS011;75286;52.218;5.180;2024-03-23T05:06:29;11.88;;;2.92;;
84923;SDS011;75286;52.218;5.180;2024-03-23T05:08:54;11.50;;;2.50;;
84923;SDS011;75286;52.218;5.180;2024-03-23T05:11:20;9.77;;;3.65;;
84923;SDS011;75286;52.218;5.180;2024-03-23T05:13:45;7.93;;;1.92;;
84923;SDS011;75286;52.218;5.180;2024-03-23T05:16:11;8.52;;;2.17;;
84923;SDS011;75286;52.218;5.180;2024-03-23T05:18:37;13.02;;;2.40;;
84923;SDS011;75286;52.218;5.180;2024-03-23T05:21:02;13.15;;;2.88;;
84923;SDS011;75286;52.218;5.180;2024-03-23T05:23:28;8.93;;;2.33;;
84923;SDS011;75286;52.218;5.180;2024-03-23T05:25:55;8.52;;;2.10;;
84923;SDS011;75286;52.218;5.180;2024-03-23T05:28:23;10.60;;;2.05;;
84923;SDS011;75286;52.218;5.180;2024-03-23T05:30:52;9.10;;;2.05;;
84923;SDS011;75286;52.218;5.180;2024-03-23T05:33:19;9.27;;;2.00;;
84923;SDS011;75286;52.218;5.180;2024-03-23T05:35:45;10.75;;;2.15;;
84923;SDS011;75286;52.218;5.180;2024-03-23T05:38:11;9.38;;;2.42;;
84923;SDS011;75286;52.218;5.180;2024-03-23T05:40:37;7.53;;;1.40;;
84923;SDS011;75286;52.218;5.180;2024-03-23T05:43:05;11.63;;;2.45;;
84923;SDS011;75286;52.218;5.180;2024-03-23T05:45:31;11.95;;;2.05;;
84923;SDS011;75286;52.218;5.180;2024-03-23T05:47:56;8.80;;;2.08;;
84923;SDS011;75286;52.218;5.180;2024-03-23T05:50:22;11.75;;;2.65;;
84923;SDS011;75286;52.218;5.180;2024-03-23T05:52:48;14.30;;;3.00;;
84923;SDS011;75286;52.218;5.180;2024-03-23T05:55:14;8.40;;;1.92;;
84923;SDS011;75286;52.218;5.180;2024-03-23T05:57:39;6.40;;;1.75;;
84923;SDS011;75286;52.218;5.180;2024-03-23T06:00:05;8.32;;;1.92;;
84923;SDS011;75286;52.218;5.180;2024-03-23T06:02:37;8.18;;;2.22;;
84923;SDS011;75286;52.218;5.180;2024-03-23T06:05:02;10.50;;;1.85;;
84923;SDS011;75286;52.218;5.180;2024-03-23T06:07:28;9.48;;;2.35;;
84923;SDS011;75286;52.218;5.180;2024-03-23T06:09:53;12.23;;;2.33;;
84923;SDS011;75286;52.218;5.180;2024-03-23T06:12:18;7.70;;;1.90;;
84923;SDS011;75286;52.218;5.180;2024-03-23T06:14:44;10.45;;;2.22;;
84923;SDS011;75286;52.218;5.180;2024-03-23T06:17:09;5.88;;;1.65;;
84923;SDS011;75286;52.218;5.180;2024-03-23T06:19:34;11.35;;;2.33;;
84923;SDS011;75286;52.218;5.180;2024-03-23T06:22:00;7.40;;;2.45;;
84923;SDS011;75286;52.218;5.180;2024-03-23T06:24:25;11.93;;;3.60;;
84923;SDS011;75286;52.218;5.180;2024-03-23T06:26:50;14.43;;;2.80;;
84923;SDS011;75286;52.218;5.180;2024-03-23T06:29:16;12.02;;;2.38;;
84923;SDS011;75286;52.218;5.180;2024-03-23T06:31:41;5.65;;;2.25;;
84923;SDS011;75286;52.218;5.180;2024-03-23T06:34:07;8.73;;;2.30;;
84923;SDS011;75286;52.218;5.180;2024-03-23T06:36:32;8.45;;;2.47;;
84923;SDS011;75286;52.218;5.180;2024-03-23T06:38:57;11.63;;;2.92;;
84923;SDS011;75286;52.218;5.180;2024-03-23T06:41:23;9.45;;;3.00;;
84923;SDS011;75286;52.218;5.180;2024-03-23T06:43:49;11.75;;;4.75;;
84923;SDS011;75286;52.218;5.180;2024-03-23T06:46:14;13.20;;;3.53;;
84923;SDS011;75286;52.218;5.180;2024-03-23T06:48:40;12.55;;;3.05;;
84923;SDS011;75286;52.218;5.180;2024-03-23T06:51:05;18.10;;;3.47;;
84923;SDS011;75286;52.218;5.180;2024-03-23T06:53:31;11.32;;;3.38;;
84923;SDS011;75286;52.218;5.180;2024-03-23T06:55:57;11.40;;;3.15;;
84923;SDS011;75286;52.218;5.180;2024-03-23T06:58:23;14.52;;;3.60;;
84923;SDS011;75286;52.218;5.180;2024-03-23T07:00:49;9.30;;;3.50;;
84923;SDS011;75286;52.218;5.180;2024-03-23T07:03:16;11.98;;;4.03;;
84923;SDS011;75286;52.218;5.180;2024-03-23T07:05:41;13.57;;;3.60;;
84923;SDS011;75286;52.218;5.180;2024-03-23T07:08:07;11.10;;;3.78;;
84923;SDS011;75286;52.218;5.180;2024-03-23T07:10:33;13.60;;;3.60;;
84923;SDS011;75286;52.218;5.180;2024-03-23T07:12:58;14.13;;;3.70;;
84923;SDS011;75286;52.218;5.180;2024-03-23T07:15:23;11.25;;;3.60;;
84923;SDS011;75286;52.218;5.180;2024-03-23T07:17:49;10.60;;;3.30;;
84923;SDS011;75286;52.218;5.180;2024-03-23T07:20:15;15.55;;;3.63;;
84923;SDS011;75286;52.218;5.180;2024-03-23T07:22:41;10.77;;;2.90;;
84923;SDS011;75286;52.218;5.180;2024-03-23T07:25:06;12.23;;;3.40;;
84923;SDS011;75286;52.218;5.180;2024-03-23T07:27:32;10.27;;;3.78;;
84923;SDS011;75286;52.218;5.180;2024-03-23T07:29:58;9.40;;;2.80;;
84923;SDS011;75286;52.218;5.180;2024-03-23T07:32:24;10.98;;;3.30;;
84923;SDS011;75286;52.218;5.180;2024-03-23T07:34:51;9.88;;;3.30;;
84923;SDS011;75286;52.218;5.180;2024-03-23T07:37:17;22.60;;;3.50;;
84923;SDS011;75286;52.218;5.180;2024-03-23T07:39:42;10.82;;;3.00;;
84923;SDS011;75286;52.218;5.180;2024-03-23T07:42:07;13.63;;;3.67;;
84923;SDS011;75286;52.218;5.180;2024-03-23T07:44:33;12.60;;;3.20;;
84923;SDS011;75286;52.218;5.180;2024-03-23T07:47:01;8.48;;;2.53;;
84923;SDS011;75286;52.218;5.180;2024-03-23T07:49:27;7.47;;;2.50;;
84923;SDS011;75286;52.218;5.180;2024-03-23T07:51:52;10.68;;;2.78;;
84923;SDS011;75286;52.218;5.180;2024-03-23T07:54:18;12.23;;;2.97;;
84923;SDS011;75286;52.218;5.180;2024-03-23T07:56:43;13.73;;;2.83;;
84923;SDS011;75286;52.218;5.180;2024-03-23T07:59:09;10.38;;;2.88;;
84923;SDS011;75286;52.218;5.180;2024-03-23T08:01:34;10.00;;;2.20;;
84923;SDS011;75286;52.218;5.180;2024-03-23T08:04:00;9.50;;;2.83;;
84923;SDS011;75286;52.218;5.180;2024-03-23T08:06:25;8.07;;;1.95;;
84923;SDS011;75286;52.218;5.180;2024-03-23T08:08:52;10.20;;;2.13;;
84923;SDS011;75286;52.218;5.180;2024-03-23T08:11:31;8.68;;;2.15;;
84923;SDS011;75286;52.218;5.180;2024-03-23T08:14:01;14.85;;;2.60;;
84923;SDS011;75286;52.218;5.180;2024-03-23T08:16:26;5.22;;;1.60;;
84923;SDS011;75286;52.218;5.180;2024-03-23T08:18:52;12.10;;;2.70;;
84923;SDS011;75286;52.218;5.180;2024-03-23T08:21:18;9.15;;;1.60;;
84923;SDS011;75286;52.218;5.180;2024-03-23T08:23:44;9.02;;;1.88;;
84923;SDS011;75286;52.218;5.180;2024-03-23T08:26:11;6.88;;;2.42;;
84923;SDS011;75286;52.218;5.180;2024-03-23T08:28:38;11.48;;;2.33;;
84923;SDS011;75286;52.218;5.180;2024-03-23T08:31:04;7.93;;;1.70;;
84923;SDS011;75286;52.218;5.180;2024-03-23T08:33:34;12.40;;;1.85;;
84923;SDS011;75286;52.218;5.180;2024-03-23T08:36:01;14.05;;;2.63;;
84923;SDS011;75286;52.218;5.180;2024-03-23T08:38:31;7.75;;;1.95;;
84923;SDS011;75286;52.218;5.180;2024-03-23T08:41:00;10.00;;;2.05;;
84923;SDS011;75286;52.218;5.180;2024-03-23T08:43:35;7.53;;;1.77;;
84923;SDS011;75286;52.218;5.180;2024-03-23T08:46:15;9.68;;;2.00;;
84923;SDS011;75286;52.218;5.180;2024-03-23T08:48:44;12.45;;;2.15;;
84923;SDS011;75286;52.218;5.180;2024-03-23T08:51:12;7.90;;;1.63;;
84923;SDS011;75286;52.218;5.180;2024-03-23T08:53:39;9.15;;;1.95;;
84923;SDS011;75286;52.218;5.180;2024-03-23T08:56:05;7.18;;;1.98;;
84923;SDS011;75286;52.218;5.180;2024-03-23T08:58:32;11.07;;;1.90;;
84923;SDS011;75286;52.218;5.180;2024-03-23T09:01:08;6.82;;;1.40;;
84923;SDS011;75286;52.218;5.180;2024-03-23T09:03:38;12.02;;;1.65;;
84923;SDS011;75286;52.218;5.180;2024-03-23T09:06:07;8.25;;;2.10;;
84923;SDS011;75286;52.218;5.180;2024-03-23T09:08:34;9.57;;;1.60;;
84923;SDS011;75286;52.218;5.180;2024-03-23T09:11:06;7.75;;;1.98;;
84923;SDS011;75286;52.218;5.180;2024-03-23T09:13:33;11.48;;;1.60;;
84923;SDS011;75286;52.218;5.180;2024-03-23T09:16:02;18.65;;;3.10;;
84923;SDS011;75286;52.218;5.180;2024-03-23T09:18:31;7.78;;;2.00;;
84923;SDS011;75286;52.218;5.180;2024-03-23T09:20:57;8.70;;;2.05;;
84923;SDS011;75286;52.218;5.180;2024-03-23T09:23:23;12.05;;;2.30;;
84923;SDS011;75286;52.218;5.180;2024-03-23T09:25:48;11.15;;;2.22;;
84923;SDS011;75286;52.218;5.180;2024-03-23T09:28:14;13.25;;;2.05;;
84923;SDS011;75286;52.218;5.180;2024-03-23T09:30:39;8.63;;;1.88;;
84923;SDS011;75286;52.218;5.180;2024-03-23T09:33:08;15.20;;;3.00;;
84923;SDS011;75286;52.218;5.180;2024-03-23T09:35:40;11.77;;;2.78;;
84923;SDS011;75286;52.218;5.180;2024-03-23T09:38:07;9.90;;;2.10;;
84923;SDS011;75286;52.218;5.180;2024-03-23T09:40:34;9.63;;;2.35;;
84923;SDS011;75286;52.218;5.180;2024-03-23T09:43:00;9.85;;;2.50;;
84923;SDS011;75286;52.218;5.180;2024-03-23T09:45:29;10.82;;;2.47;;
84923;SDS011;75286;52.218;5.180;2024-03-23T09:47:54;11.65;;;2.42;;
84923;SDS011;75286;52.218;5.180;2024-03-23T09:50:21;8.38;;;1.95;;
84923;SDS011;75286;52.218;5.180;2024-03-23T09:52:46;11.25;;;3.10;;
84923;SDS011;75286;52.218;5.180;2024-03-23T09:55:12;10.15;;;1.65;;
84923;SDS011;75286;52.218;5.180;2024-03-23T09:57:39;10.88;;;2.25;;
84923;SDS011;75286;52.218;5.180;2024-03-23T10:00:04;9.10;;;2.03;;
84923;SDS011;75286;52.218;5.180;2024-03-23T10:02:32;9.48;;;1.90;;
84923;SDS011;75286;52.218;5.180;2024-03-23T10:04:58;9.43;;;1.77;;
84923;SDS011;75286;52.218;5.180;2024-03-23T10:07:23;9.27;;;1.92;;
84923;SDS011;75286;52.218;5.180;2024-03-23T10:09:49;8.45;;;1.83;;
84923;SDS011;75286;52.218;5.180;2024-03-23T10:12:17;9.65;;;1.90;;
84923;SDS011;75286;52.218;5.180;2024-03-23T10:14:44;11.35;;;2.53;;
84923;SDS011;75286;52.218;5.180;2024-03-23T10:19:48;10.35;;;2.55;;
84923;SDS011;75286;52.218;5.180;2024-03-23T10:22:22;11.57;;;2.22;;
84923;SDS011;75286;52.218;5.180;2024-03-23T10:24:49;9.23;;;1.60;;
84923;SDS011;75286;52.218;5.180;2024-03-23T10:27:18;9.90;;;2.85;;
84923;SDS011;75286;52.218;5.180;2024-03-23T10:29:49;13.13;;;2.22;;
84923;SDS011;75286;52.218;5.180;2024-03-23T10:32:15;7.65;;;1.80;;
84923;SDS011;75286;52.218;5.180;2024-03-23T10:34:41;7.05;;;1.27;;
84923;SDS011;75286;52.218;5.180;2024-03-23T10:37:07;8.85;;;2.78;;
84923;SDS011;75286;52.218;5.180;2024-03-23T10:39:34;9.95;;;2.20;;
84923;SDS011;75286;52.218;5.180;2024-03-23T10:42:08;7.22;;;1.60;;
84923;SDS011;75286;52.218;5.180;2024-03-23T10:44:35;8.85;;;2.03;;
84923;SDS011;75286;52.218;5.180;2024-03-23T10:47:01;10.27;;;1.98;;
84923;SDS011;75286;52.218;5.180;2024-03-23T10:49:34;8.27;;;1.23;;
84923;SDS011;75286;52.218;5.180;2024-03-23T10:52:01;8.50;;;1.70;;
84923;SDS011;75286;52.218;5.180;2024-03-23T10:54:29;9.23;;;2.00;;
84923;SDS011;75286;52.218;5.180;2024-03-23T10:59:36;8.15;;;1.88;;
84923;SDS011;75286;52.218;5.180;2024-03-23T11:02:03;16.70;;;2.38;;
84923;SDS011;75286;52.218;5.180;2024-03-23T11:04:32;6.95;;;2.28;;
84923;SDS011;75286;52.218;5.180;2024-03-23T11:07:28;7.80;;;1.33;;
84923;SDS011;75286;52.218;5.180;2024-03-23T11:10:01;6.85;;;3.55;;
84923;SDS011;75286;52.218;5.180;2024-03-23T11:12:28;13.05;;;1.67;;
84923;SDS011;75286;52.218;5.180;2024-03-23T11:14:58;7.65;;;1.48;;
84923;SDS011;75286;52.218;5.180;2024-03-23T11:17:26;12.60;;;2.13;;
84923;SDS011;75286;52.218;5.180;2024-03-23T11:19:55;6.60;;;1.75;;
84923;SDS011;75286;52.218;5.180;2024-03-23T11:25:02;13.65;;;1.88;;
84923;SDS011;75286;52.218;5.180;2024-03-23T11:27:28;8.70;;;2.08;;
84923;SDS011;75286;52.218;5.180;2024-03-23T11:29:54;6.75;;;1.20;;
84923;SDS011;75286;52.218;5.180;2024-03-23T11:32:19;12.38;;;2.45;;
84923;SDS011;75286;52.218;5.180;2024-03-23T11:34:44;9.70;;;2.28;;
84923;SDS011;75286;52.218;5.180;2024-03-23T11:37:10;9.38;;;1.75;;
84923;SDS011;75286;52.218;5.180;2024-03-23T11:39:35;12.05;;;1.98;;
84923;SDS011;75286;52.218;5.180;2024-03-23T11:42:00;11.18;;;2.22;;
84923;SDS011;75286;52.218;5.180;2024-03-23T11:44:26;5.38;;;1.33;;
84923;SDS011;75286;52.218;5.180;2024-03-23T11:46:52;9.50;;;1.88;;
84923;SDS011;75286;52.218;5.180;2024-03-23T11:51:50;7.93;;;1.87;;
84923;SDS011;75286;52.218;5.180;2024-03-23T11:54:19;12.27;;;3.03;;
84923;SDS011;75286;52.218;5.180;2024-03-23T11:59:33;13.13;;;2.15;;
84923;SDS011;75286;52.218;5.180;2024-03-23T12:01:58;9.13;;;3.00;;
84923;SDS011;75286;52.218;5.180;2024-03-23T12:04:27;10.07;;;1.95;;
84923;SDS011;75286;52.218;5.180;2024-03-23T12:07:09;12.25;;;1.90;;
84923;SDS011;75286;52.218;5.180;2024-03-23T12:09:36;7.88;;;1.55;;
84923;SDS011;75286;52.218;5.180;2024-03-23T12:12:08;9.48;;;1.73;;
84923;SDS011;75286;52.218;5.180;2024-03-23T12:14:44;11.07;;;2.10;;
84923;SDS011;75286;52.218;5.180;2024-03-23T12:17:11;8.80;;;1.40;;
84923;SDS011;75286;52.218;5.180;2024-03-23T12:19:37;10.32;;;1.70;;
84923;SDS011;75286;52.218;5.180;2024-03-23T12:22:04;10.63;;;1.67;;
84923;SDS011;75286;52.218;5.180;2024-03-23T12:24:30;7.97;;;1.73;;
84923;SDS011;75286;52.218;5.180;2024-03-23T12:27:00;7.97;;;1.70;;
84923;SDS011;75286;52.218;5.180;2024-03-23T12:29:30;8.50;;;1.63;;
84923;SDS011;75286;52.218;5.180;2024-03-23T12:31:58;12.65;;;2.00;;
84923;SDS011;75286;52.218;5.180;2024-03-23T12:34:25;6.75;;;1.40;;
84923;SDS011;75286;52.218;5.180;2024-03-23T12:36:50;9.50;;;1.98;;
84923;SDS011;75286;52.218;5.180;2024-03-23T12:39:15;10.13;;;1.75;;
84923;SDS011;75286;52.218;5.180;2024-03-23T12:41:41;9.88;;;2.10;;
84923;SDS011;75286;52.218;5.180;2024-03-23T12:44:06;7.57;;;1.50;;
84923;SDS011;75286;52.218;5.180;2024-03-23T12:46:33;4.78;;;1.35;;
84923;SDS011;75286;52.218;5.180;2024-03-23T12:48:59;5.80;;;1.35;;
84923;SDS011;75286;52.218;5.180;2024-03-23T12:51:24;6.63;;;1.40;;
84923;SDS011;75286;52.218;5.180;2024-03-23T12:53:50;8.65;;;1.40;;
84923;SDS011;75286;52.218;5.180;2024-03-23T12:56:15;7.35;;;2.00;;
84923;SDS011;75286;52.218;5.180;2024-03-23T12:58:41;8.85;;;1.83;;
84923;SDS011;75286;52.218;5.180;2024-03-23T13:01:06;6.05;;;1.17;;
84923;SDS011;75286;52.218;5.180;2024-03-23T13:03:31;5.47;;;1.60;;
84923;SDS011;75286;52.218;5.180;2024-03-23T13:05:57;5.95;;;1.65;;
84923;SDS011;75286;52.218;5.180;2024-03-23T13:08:22;8.52;;;1.67;;
84923;SDS011;75286;52.218;5.180;2024-03-23T13:10:51;7.25;;;1.70;;
84923;SDS011;75286;52.218;5.180;2024-03-23T13:13:16;7.20;;;1.40;;
84923;SDS011;75286;52.218;5.180;2024-03-23T13:15:42;9.00;;;1.35;;
84923;SDS011;75286;52.218;5.180;2024-03-23T13:18:07;7.75;;;1.52;;
84923;SDS011;75286;52.218;5.180;2024-03-23T13:20:35;6.18;;;1.63;;
84923;SDS011;75286;52.218;5.180;2024-03-23T13:23:00;7.18;;;1.42;;
84923;SDS011;75286;52.218;5.180;2024-03-23T13:25:26;9.15;;;1.52;;
84923;SDS011;75286;52.218;5.180;2024-03-23T13:27:51;6.57;;;1.50;;
84923;SDS011;75286;52.218;5.180;2024-03-23T13:30:16;7.65;;;1.60;;
84923;SDS011;75286;52.218;5.180;2024-03-23T13:32:42;10.32;;;1.67;;
84923;SDS011;75286;52.218;5.180;2024-03-23T13:35:07;8.90;;;2.00;;
84923;SDS011;75286;52.218;5.180;2024-03-23T13:37:32;8.93;;;1.95;;
84923;SDS011;75286;52.218;5.180;2024-03-23T13:39:59;7.53;;;1.75;;
84923;SDS011;75286;52.218;5.180;2024-03-23T13:42:24;8.38;;;2.00;;
84923;SDS011;75286;52.218;5.180;2024-03-23T13:44:51;4.88;;;1.25;;
84923;SDS011;75286;52.218;5.180;2024-03-23T13:47:16;10.18;;;2.40;;
84923;SDS011;75286;52.218;5.180;2024-03-23T13:49:41;8.60;;;1.83;;
84923;SDS011;75286;52.218;5.180;2024-03-23T13:52:07;7.32;;;0.95;;
84923;SDS011;75286;52.218;5.180;2024-03-23T13:54:32;8.15;;;1.20;;
84923;SDS011;75286;52.218;5.180;2024-03-23T13:56:58;10.48;;;1.92;;
84923;SDS011;75286;52.218;5.180;2024-03-23T13:59:23;7.15;;;1.75;;
84923;SDS011;75286;52.218;5.180;2024-03-23T14:01:49;11.10;;;1.60;;
84923;SDS011;75286;52.218;5.180;2024-03-23T14:04:15;5.00;;;1.63;;
84923;SDS011;75286;52.218;5.180;2024-03-23T14:06:48;8.10;;;1.70;;
84923;SDS011;75286;52.218;5.180;2024-03-23T14:09:13;10.50;;;2.53;;
84923;SDS011;75286;52.218;5.180;2024-03-23T14:11:39;10.65;;;1.50;;
84923;SDS011;75286;52.218;5.180;2024-03-23T14:14:06;9.30;;;1.60;;
84923;SDS011;75286;52.218;5.180;2024-03-23T14:16:31;6.28;;;1.63;;
84923;SDS011;75286;52.218;5.180;2024-03-23T14:18:57;9.93;;;1.70;;
84923;SDS011;75286;52.218;5.180;2024-03-23T14:21:23;8.27;;;1.90;;
84923;SDS011;75286;52.218;5.180;2024-03-23T14:23:48;7.30;;;1.45;;
84923;SDS011;75286;52.218;5.180;2024-03-23T14:26:14;4.50;;;1.00;;
84923;SDS011;75286;52.218;5.180;2024-03-23T14:28:39;7.05;;;1.30;;
84923;SDS011;75286;52.218;5.180;2024-03-23T14:31:05;6.60;;;1.10;;
84923;SDS011;75286;52.218;5.180;2024-03-23T14:33:35;9.00;;;1.50;;
84923;SDS011;75286;52.218;5.180;2024-03-23T14:36:06;6.22;;;1.02;;
84923;SDS011;75286;52.218;5.180;2024-03-23T14:38:33;6.85;;;1.83;;
84923;SDS011;75286;52.218;5.180;2024-03-23T14:40:59;4.00;;;0.82;;
84923;SDS011;75286;52.218;5.180;2024-03-23T14:43:25;7.97;;;1.55;;
84923;SDS011;75286;52.218;5.180;2024-03-23T14:46:06;6.68;;;1.52;;
84923;SDS011;75286;52.218;5.180;2024-03-23T14:48:37;7.30;;;1.50;;
84923;SDS011;75286;52.218;5.180;2024-03-23T14:51:03;10.45;;;2.33;;
84923;SDS011;75286;52.218;5.180;2024-03-23T14:53:33;7.95;;;1.65;;
84923;SDS011;75286;52.218;5.180;2024-03-23T14:56:00;9.25;;;1.90;;
84923;SDS011;75286;52.218;5.180;2024-03-23T14:58:27;4.65;;;1.38;;
84923;SDS011;75286;52.218;5.180;2024-03-23T15:00:52;5.20;;;1.52;;
84923;SDS011;75286;52.218;5.180;2024-03-23T15:03:18;9.82;;;2.72;;
84923;SDS011;75286;52.218;5.180;2024-03-23T15:05:54;6.40;;;1.10;;
84923;SDS011;75286;52.218;5.180;2024-03-23T15:08:24;5.03;;;1.40;;
84923;SDS011;75286;52.218;5.180;2024-03-23T15:10:50;6.50;;;1.85;;
84923;SDS011;75286;52.218;5.180;2024-03-23T15:13:16;6.53;;;1.23;;
84923;SDS011;75286;52.218;5.180;2024-03-23T15:15:41;9.02;;;1.70;;
84923;SDS011;75286;52.218;5.180;2024-03-23T15:18:13;8.30;;;1.50;;
84923;SDS011;75286;52.218;5.180;2024-03-23T15:20:40;7.38;;;1.20;;
84923;SDS011;75286;52.218;5.180;2024-03-23T15:23:06;6.05;;;1.02;;
84923;SDS011;75286;52.218;5.180;2024-03-23T15:25:32;4.68;;;1.52;;
84923;SDS011;75286;52.218;5.180;2024-03-23T15:27:57;5.80;;;1.30;;
84923;SDS011;75286;52.218;5.180;2024-03-23T15:30:24;8.43;;;1.30;;
84923;SDS011;75286;52.218;5.180;2024-03-23T15:32:50;9.43;;;2.08;;
84923;SDS011;75286;52.218;5.180;2024-03-23T15:35:15;7.47;;;1.52;;
84923;SDS011;75286;52.218;5.180;2024-03-23T15:37:42;10.13;;;1.88;;
84923;SDS011;75286;52.218;5.180;2024-03-23T15:40:08;5.00;;;1.77;;
84923;SDS011;75286;52.218;5.180;2024-03-23T15:42:35;13.00;;;2.22;;